Time;durP1;ratioP1;P1;durP2;ratioP2;P2;SDS_P1;SDS_P2;PMS_P1;PMS_P2;Temp;Humidity;BMP_temperature;BMP_pressure;BME280_temperature;BME280_humidity;BME280_pressure;Samples;Min_cycle;Max_cycle;Signal;HPM_P1;HPM_P2
2022/01/23 00:00:51;;;;;;;31.02;12.52;;;;;;;4.45;92.37;102133.19;5096266;28;20035;-76
2022/01/23 00:03:19;;;;;;;31.08;13.10;;;;;;;4.50;92.16;102130.97;5095363;28;20042;-76
2022/01/23 00:05:47;;;;;;;34.55;11.88;;;;;;;4.47;92.04;102125.06;5096647;28;20028;-76
2022/01/23 00:08:16;;;;;;;32.67;11.70;;;;;;;4.57;92.35;102123.34;5096407;28;20028;-76
2022/01/23 00:10:42;;;;;;;30.85;12.63;;;;;;;4.48;91.56;102127.59;5096326;28;20039;-76
2022/01/23 00:13:25;;;;;;;37.97;12.68;;;;;;;4.47;92.04;102125.91;5096277;28;20047;-76
2022/01/23 00:18:34;;;;;;;34.28;12.75;;;;;;;4.40;92.08;102111.34;5096165;28;20054;-76
2022/01/23 00:21:00;;;;;;;29.23;11.30;;;;;;;4.34;92.38;102114.50;5096124;28;20031;-76
2022/01/23 00:23:32;;;;;;;35.63;12.85;;;;;;;4.35;92.92;102116.19;5096258;28;20044;-76
2022/01/23 00:31:33;;;;;;;28.52;11.02;;;;;;;4.35;92.75;102102.84;5096317;28;20039;-76
2022/01/23 00:33:59;;;;;;;27.45;9.82;;;;;;;4.32;92.84;102107.59;5096500;28;20070;-76
2022/01/23 00:36:26;;;;;;;25.00;9.35;;;;;;;4.28;92.96;102108.84;5096172;28;20032;-76
2022/01/23 00:38:52;;;;;;;33.83;11.23;;;;;;;4.30;92.84;102099.69;5095929;28;20067;-76
2022/01/23 00:41:18;;;;;;;27.90;10.85;;;;;;;4.31;93.56;102097.88;5096224;28;20467;-76
2022/01/23 00:43:45;;;;;;;31.30;11.93;;;;;;;4.29;93.00;102092.69;5095306;28;20071;-76
2022/01/23 00:46:23;;;;;;;36.03;12.65;;;;;;;4.23;93.18;102100.34;5094758;28;20118;-76
2022/01/23 00:51:26;;;;;;;31.88;12.85;;;;;;;4.25;93.61;102117.94;5096088;28;20057;-76
2022/01/23 00:53:52;;;;;;;33.97;13.52;;;;;;;4.26;93.82;102119.63;5095405;28;20028;-76
2022/01/23 00:56:17;;;;;;;30.13;11.88;;;;;;;4.33;93.77;102123.47;5095496;28;20086;-76
2022/01/23 00:58:44;;;;;;;31.07;11.47;;;;;;;4.28;93.49;102131.03;5095529;28;20075;-76
2022/01/23 01:01:10;;;;;;;28.65;11.55;;;;;;;4.37;93.45;102122.28;5095514;28;20287;-76
2022/01/23 01:03:35;;;;;;;31.42;11.07;;;;;;;4.22;93.88;102118.16;5095416;28;20036;-76
2022/01/23 01:06:01;;;;;;;32.67;12.20;;;;;;;4.29;93.46;102119.38;5095417;28;20040;-77
2022/01/23 01:08:26;;;;;;;31.70;11.02;;;;;;;4.18;93.69;102117.56;5095427;28;20031;-76
2022/01/23 01:13:50;;;;;;;31.30;11.13;;;;;;;4.43;93.94;102127.13;5095618;28;20028;-76
2022/01/23 01:35:28;;;;;;;25.15;8.77;;;;;;;4.28;93.94;102103.50;5073324;28;20043;-76
2022/01/23 01:37:53;;;;;;;25.00;10.30;;;;;;;4.25;93.58;102104.59;5095037;28;20095;-76
2022/01/23 01:40:21;;;;;;;25.75;10.57;;;;;;;4.27;94.07;102097.31;5094697;28;20032;-76
2022/01/23 01:42:46;;;;;;;25.65;8.98;;;;;;;4.29;94.27;102108.72;5094583;28;20504;-76
2022/01/23 01:45:12;;;;;;;30.75;11.32;;;;;;;4.29;93.80;102092.69;5094527;28;20028;-76
2022/01/23 01:47:38;;;;;;;25.05;9.50;;;;;;;4.30;93.96;102094.38;5094801;28;20046;-76
2022/01/23 01:50:05;;;;;;;27.20;10.15;;;;;;;4.28;94.15;102085.66;5094572;28;20060;-76
2022/01/23 01:52:33;;;;;;;33.15;9.43;;;;;;;4.27;93.96;102078.63;5094204;28;20519;-76
2022/01/23 01:55:02;;;;;;;26.95;9.60;;;;;;;4.32;94.03;102083.56;5094641;28;20705;-76
2022/01/23 01:57:29;;;;;;;33.67;9.68;;;;;;;4.33;93.55;102085.28;5094451;28;20039;-76
2022/01/23 02:10:37;;;;;;;33.08;11.38;;;;;;;4.28;93.45;102088.34;5094423;28;20476;-76
2022/01/23 02:51:37;;;;;;;29.55;11.80;;;;;;;4.26;93.55;102084.94;5093465;28;20179;-76
2022/01/23 02:54:23;;;;;;;34.83;11.10;;;;;;;4.27;93.67;102089.31;5093540;28;20039;-76
2022/01/23 02:56:52;;;;;;;33.60;12.67;;;;;;;4.14;93.33;102088.56;5093401;28;20028;-76
2022/01/23 02:59:35;;;;;;;29.83;10.65;;;;;;;4.12;93.63;102093.19;5093461;28;20044;-76
2022/01/23 03:04:39;;;;;;;28.95;12.45;;;;;;;4.39;93.77;102100.81;5093418;28;20032;-76
2022/01/23 03:07:17;;;;;;;36.17;12.00;;;;;;;4.22;92.79;102094.16;5092930;28;20038;-76
2022/01/23 03:26:31;;;;;;;37.88;11.50;;;;;;;4.27;93.21;102096.47;5093199;28;20034;-76
2022/01/23 03:29:04;;;;;;;31.13;11.43;;;;;;;4.35;93.07;102094.00;5092638;28;20044;-76
2022/01/23 03:31:57;;;;;;;32.83;11.82;;;;;;;4.38;92.64;102097.28;5092931;28;20041;-76
2022/01/23 03:34:26;;;;;;;26.30;10.13;;;;;;;4.39;92.79;102106.97;5093020;28;20425;-76
2022/01/23 03:36:51;;;;;;;30.63;10.68;;;;;;;4.35;92.61;102104.69;5091987;28;20036;-76
2022/01/23 03:39:17;;;;;;;28.67;11.10;;;;;;;4.61;93.45;102115.94;5092877;28;20070;-76
2022/01/23 03:41:44;;;;;;;33.67;11.55;;;;;;;4.46;92.17;102120.69;5091867;28;20459;-76
2022/01/23 03:44:12;;;;;;;30.10;11.27;;;;;;;4.52;91.70;102115.69;5092757;28;20028;-76
2022/01/23 03:49:31;;;;;;;30.88;9.82;;;;;;;4.78;91.17;102123.41;5093277;28;20042;-76
2022/01/23 03:52:04;;;;;;;30.42;10.55;;;;;;;4.70;91.12;102124.03;5091769;28;20028;-76
2022/01/23 03:54:30;;;;;;;31.17;11.75;;;;;;;4.58;91.87;102118.84;5092962;28;20028;-76
2022/01/23 03:56:58;;;;;;;28.05;11.15;;;;;;;4.48;92.06;102121.41;5093701;28;20531;-76
2022/01/23 03:59:23;;;;;;;28.30;11.18;;;;;;;4.34;92.62;102119.84;5092407;28;20052;-76
2022/01/23 04:01:49;;;;;;;27.25;10.30;;;;;;;4.27;93.26;102121.31;5092587;28;20112;-76
2022/01/23 04:04:36;;;;;;;27.70;11.43;;;;;;;4.19;93.41;102126.41;5092800;28;20367;-76
2022/01/23 04:07:00;;;;;;;28.30;10.02;;;;;;;4.17;93.90;102128.34;5092308;28;20462;-76
2022/01/23 04:09:25;;;;;;;30.75;9.65;;;;;;;4.15;94.29;102130.28;5092982;28;20048;-77
2022/01/23 04:11:51;;;;;;;29.95;10.27;;;;;;;4.15;94.08;102130.28;5092905;28;20048;-76
2022/01/23 04:14:18;;;;;;;;;;;;;;;4.07;94.44;102128.25;5093590;28;20035;-77
2022/01/23 04:17:30;;;;;;;27.92;9.27;;;;;;;4.29;94.16;102132.72;5093127;28;19915;-77
2022/01/23 04:33:27;;;;;;;41.47;12.13;;;;;;;4.08;94.45;102123.75;5096131;28;20081;-77
2022/01/23 05:00:33;;;;;;;32.78;10.73;;;;;;;4.09;94.63;102126.31;5095231;28;20055;-77
2022/01/23 05:05:30;;;;;;;29.90;11.40;;;;;;;4.10;94.89;102119.16;5095332;28;20458;-76
2022/01/23 05:07:56;;;;;;;29.33;9.70;;;;;;;4.22;94.51;102119.97;5095510;28;20254;-77
2022/01/23 05:10:22;;;;;;;30.55;11.18;;;;;;;4.24;94.27;102124.22;5094159;28;20039;-76
2022/01/23 05:12:47;;;;;;;25.98;9.70;;;;;;;4.17;94.00;102131.88;5095403;28;20458;-76
2022/01/23 05:15:12;;;;;;;31.40;11.90;;;;;;;4.24;94.36;102124.22;5095431;28;20085;-76
2022/01/23 05:17:38;;;;;;;30.10;11.80;;;;;;;4.22;94.06;102126.16;5095417;28;20386;-76
2022/01/23 05:20:05;;;;;;;32.80;12.30;;;;;;;4.25;93.87;102115.25;5094847;28;20463;-76
2022/01/23 05:22:43;;;;;;;35.53;11.60;;;;;;;4.19;93.74;102131.75;5095151;28;20035;-76
2022/01/23 05:27:40;;;;;;;30.77;10.77;;;;;;;4.13;94.26;102132.22;5094743;28;20118;-76
2022/01/23 05:30:06;;;;;;;32.63;12.48;;;;;;;4.11;94.74;102135.03;5094431;28;20076;-76
2022/01/23 05:32:36;;;;;;;33.53;12.60;;;;;;;4.09;94.42;102131.63;5095176;28;20441;-76
2022/01/23 05:35:02;;;;;;;31.20;9.95;;;;;;;4.13;94.70;102135.75;5095224;28;20156;-76
2022/01/23 05:37:28;;;;;;;36.60;12.13;;;;;;;4.26;94.59;102140.13;5094537;28;20059;-76
2022/01/23 05:39:53;;;;;;;37.95;12.30;;;;;;;4.23;93.92;102140.34;5094518;28;20111;-76
2022/01/23 05:42:19;;;;;;;49.13;12.10;;;;;;;4.18;94.16;102135.38;5094887;28;20093;-77
2022/01/23 05:44:44;;;;;;;36.75;12.93;;;;;;;4.15;94.31;102143.63;5094630;28;20031;-76
2022/01/23 05:47:11;;;;;;;38.77;12.90;;;;;;;4.17;94.79;102145.19;5094865;28;20028;-76
2022/01/23 05:49:37;;;;;;;37.38;13.40;;;;;;;4.15;94.63;102140.94;5094666;28;20278;-76
2022/01/23 05:52:04;;;;;;;32.92;12.25;;;;;;;4.43;93.99;102140.47;5094424;28;20462;-76
2022/01/23 05:54:30;;;;;;;32.03;11.75;;;;;;;4.34;93.89;102130.50;5093160;28;20131;-76
2022/01/23 05:56:55;;;;;;;39.25;14.55;;;;;;;4.33;93.94;102133.31;5094515;28;20110;-76
2022/01/23 05:59:21;;;;;;;37.30;13.50;;;;;;;4.32;94.07;102136.94;5094448;28;20452;-76
2022/01/23 06:01:47;;;;;;;;;;;;;;;4.26;93.56;102148.13;5093715;28;20028;-76
2022/01/23 06:04:13;;;;;;;40.15;12.57;;;;;;;4.13;93.69;102148.22;5094589;28;19961;-76
2022/01/23 06:06:38;;;;;;;31.58;12.90;;;;;;;4.14;94.13;102148.09;5093161;28;20059;-76
2022/01/23 06:09:04;;;;;;;34.83;12.38;;;;;;;4.30;94.43;102150.41;5094254;28;20062;-76
2022/01/23 06:11:29;;;;;;;43.80;12.85;;;;;;;4.42;93.82;102149.44;5094267;28;20040;-76
2022/01/23 06:13:55;;;;;;;38.50;12.02;;;;;;;4.26;93.47;102148.13;5093976;28;20032;-76
2022/01/23 06:16:20;;;;;;;35.30;12.32;;;;;;;4.41;93.78;102147.75;5093809;28;20039;-76
2022/01/23 06:18:46;;;;;;;37.47;12.02;;;;;;;4.39;93.66;102143.50;5093889;28;20036;-77
2022/01/23 06:21:15;;;;;;;39.25;12.32;;;;;;;4.39;93.59;102147.00;5094158;28;20102;-76
2022/01/23 06:23:40;;;;;;;41.88;13.05;;;;;;;4.30;93.84;102153.06;5092889;28;20036;-76
2022/01/23 06:26:06;;;;;;;37.78;12.95;;;;;;;4.44;93.30;102155.50;5093624;28;20031;-76
2022/01/23 06:28:47;;;;;;;36.80;12.30;;;;;;;4.42;93.09;102154.78;5093699;28;20036;-76
2022/01/23 06:31:12;;;;;;;37.53;10.70;;;;;;;4.35;93.17;102155.38;5092498;28;20031;-76
2022/01/23 06:33:38;;;;;;;40.70;13.50;;;;;;;4.36;93.94;102157.09;5093935;28;20028;-75
2022/01/23 06:36:04;;;;;;;36.00;12.40;;;;;;;4.35;93.51;102158.91;5093580;28;20481;-75
2022/01/23 06:38:30;;;;;;;;;;;;;;;4.52;93.57;102153.06;5094247;28;20470;-75
2022/01/23 06:40:55;;;;;;;39.05;12.68;;;;;;;4.47;93.29;102162.44;5091745;28;19919;-75
2022/01/23 06:43:21;;;;;;;35.47;12.25;;;;;;;4.41;93.20;102163.75;5093536;28;20027;-75
2022/01/23 06:45:46;;;;;;;38.72;12.88;;;;;;;4.47;93.81;102157.94;5093311;28;20040;-75
2022/01/23 06:48:11;;;;;;;41.17;14.30;;;;;;;4.36;93.80;102157.09;5093768;28;20028;-75
2022/01/23 06:50:38;;;;;;;36.17;12.00;;;;;;;4.32;93.62;102161.81;5092361;28;20055;-74
2022/01/23 06:53:04;;;;;;;43.33;13.77;;;;;;;4.30;93.50;102160.25;5092127;28;20028;-74
2022/01/23 06:55:29;;;;;;;46.53;13.55;;;;;;;4.28;93.30;102157.72;5092523;28;20165;-74
2022/01/23 06:57:54;;;;;;;41.78;13.00;;;;;;;4.30;93.65;102162.94;5091991;28;20123;-74
2022/01/23 07:00:20;;;;;;;42.67;12.97;;;;;;;4.30;93.86;102166.41;5093358;28;20481;-74
2022/01/23 07:02:46;;;;;;;40.30;13.68;;;;;;;4.30;93.92;102166.41;5093437;28;20687;-74
2022/01/23 07:05:12;;;;;;;47.83;13.60;;;;;;;4.33;93.85;102165.31;5093450;28;20025;-74
2022/01/23 07:07:37;;;;;;;40.13;13.00;;;;;;;4.35;93.56;102168.72;5093504;28;20643;-75
2022/01/23 07:10:03;;;;;;;35.87;14.53;;;;;;;4.31;93.76;102167.25;5093336;28;20036;-74
2022/01/23 07:12:28;;;;;;;34.03;12.60;;;;;;;4.23;93.50;102161.69;5092801;28;20297;-74
2022/01/23 07:14:54;;;;;;;35.80;12.27;;;;;;;4.21;93.93;102176.97;5093307;28;20455;-74
2022/01/23 07:17:20;;;;;;;37.25;12.23;;;;;;;4.22;94.04;102178.69;5092988;28;20371;-74
2022/01/23 07:19:45;;;;;;;45.20;14.10;;;;;;;4.21;93.87;102185.84;5093392;28;20070;-74
2022/01/23 07:22:10;;;;;;;39.65;12.80;;;;;;;4.22;94.06;102184.03;5093532;28;20028;-75
2022/01/23 07:24:36;;;;;;;41.42;12.73;;;;;;;4.23;94.04;102183.91;5093038;28;20032;-75
2022/01/23 07:27:11;;;;;;;43.55;12.45;;;;;;;4.26;94.01;102190.81;5092136;28;20388;-75
2022/01/23 07:29:36;;;;;;;40.72;12.95;;;;;;;4.26;94.26;102193.50;5093013;28;20070;-75
2022/01/23 07:32:07;;;;;;;42.77;11.90;;;;;;;4.40;93.79;102206.59;5093408;28;20038;-75
2022/01/23 07:34:33;;;;;;;38.70;12.35;;;;;;;4.34;93.51;102205.25;5092758;28;20303;-74
2022/01/23 07:36:58;;;;;;;42.92;13.45;;;;;;;4.29;94.05;102204.78;5092745;28;20476;-75
2022/01/23 07:39:24;;;;;;;45.00;14.02;;;;;;;4.26;94.13;102193.50;5092801;28;20044;-75
2022/01/23 07:41:49;;;;;;;50.78;15.40;;;;;;;4.24;94.18;102201.59;5091651;28;20395;-74
2022/01/23 07:44:15;;;;;;;42.15;13.43;;;;;;;4.63;95.15;102204.75;5092977;28;20174;-75
2022/01/23 07:46:40;;;;;;;38.00;15.23;;;;;;;4.53;93.59;102197.47;5092965;28;20032;-76
2022/01/23 07:49:06;;;;;;;41.30;12.82;;;;;;;4.50;92.81;102204.88;5092805;28;20477;-75
2022/01/23 07:51:31;;;;;;;44.85;15.90;;;;;;;4.48;92.95;102201.47;5092919;28;20036;-74
2022/01/23 07:53:57;;;;;;;36.97;13.57;;;;;;;4.72;93.05;102212.03;5095753;28;20478;-75
2022/01/23 07:56:22;;;;;;;46.80;13.63;;;;;;;4.79;92.94;102210.56;5096516;28;20126;-75
2022/01/23 07:58:47;;;;;;;60.30;16.27;;;;;;;4.51;92.13;102210.09;5096899;28;20313;-75
2022/01/23 08:01:13;;;;;;;48.42;13.32;;;;;;;4.49;92.62;102212.03;5097602;28;20067;-77
2022/01/23 08:03:38;;;;;;;42.38;13.88;;;;;;;4.81;93.24;102208.63;5097260;28;20412;-77
2022/01/23 08:06:05;;;;;;;50.20;15.30;;;;;;;4.68;91.92;102210.56;5096699;28;20036;-75
2022/01/23 08:08:31;;;;;;;44.00;13.55;;;;;;;4.72;92.15;102212.03;5096423;28;20055;-75
2022/01/23 08:10:56;;;;;;;55.63;14.82;;;;;;;4.65;92.42;102211.69;5096291;28;20587;-75
2022/01/23 08:13:21;;;;;;;44.70;13.32;;;;;;;4.46;91.74;102217.63;5096287;28;20425;-75
2022/01/23 08:15:47;;;;;;;55.40;16.80;;;;;;;4.23;92.13;102217.75;5096475;28;20440;-77
2022/01/23 08:18:15;;;;;;;51.23;14.07;;;;;;;4.21;93.08;102227.69;5096900;28;20108;-75
2022/01/23 08:20:41;;;;;;;41.88;13.05;;;;;;;4.31;93.57;102221.50;5097651;28;20369;-77
2022/01/23 08:23:06;;;;;;;53.63;14.25;;;;;;;4.57;92.70;102221.25;5096173;28;20060;-75
2022/01/23 08:25:33;;;;;;;36.67;13.07;;;;;;;4.80;92.33;102222.94;5095992;28;20043;-75
2022/01/23 08:27:58;;;;;;;46.10;13.07;;;;;;;4.67;91.69;102225.72;5096289;28;20469;-76
2022/01/23 08:30:24;;;;;;;47.40;15.00;;;;;;;4.59;91.40;102227.31;5096021;28;20056;-76
2022/01/23 08:32:49;;;;;;;36.03;13.10;;;;;;;4.67;91.39;102231.06;5095967;28;20032;-76
2022/01/23 08:35:15;;;;;;;39.40;12.63;;;;;;;4.62;92.12;102241.28;5096135;28;20055;-77
2022/01/23 08:37:41;;;;;;;37.33;12.20;;;;;;;4.61;91.95;102242.25;5096197;28;20111;-76
2022/01/23 08:42:58;;;;;;;37.10;12.15;;;;;;;4.61;91.69;102244.06;5076184;28;20044;-75
2022/01/23 08:45:24;;;;;;;39.35;12.65;;;;;;;4.84;91.81;102251.09;5095672;28;20394;-76
2022/01/23 08:47:49;;;;;;;39.17;11.47;;;;;;;4.76;91.13;102253.53;5094594;28;20506;-76
2022/01/23 08:50:15;;;;;;;34.78;11.60;;;;;;;4.57;91.73;102253.28;5095849;28;20035;-76
2022/01/23 08:52:40;;;;;;;37.72;13.85;;;;;;;4.39;92.52;102266.28;5095777;28;20394;-77
2022/01/23 08:55:06;;;;;;;32.97;10.80;;;;;;;4.46;92.26;102265.69;5094804;28;20032;-78
2022/01/23 08:57:31;;;;;;;31.25;10.20;;;;;;;4.41;91.84;102262.50;5096095;28;20115;-77
2022/01/23 08:59:56;;;;;;;32.50;10.57;;;;;;;4.77;91.12;102260.56;5095201;28;20036;-76
2022/01/23 09:02:22;;;;;;;23.02;9.82;;;;;;;4.75;91.07;102250.00;5095570;28;20119;-76
2022/01/23 09:04:47;;;;;;;30.17;9.55;;;;;;;4.74;90.95;102250.97;5094880;28;20032;-76
2022/01/23 09:07:13;;;;;;;25.58;8.50;;;;;;;5.07;89.81;102247.41;5095255;28;20028;-76
2022/01/23 09:09:40;;;;;;;30.20;9.45;;;;;;;4.97;89.85;102253.63;5095592;28;20036;-76
2022/01/23 09:14:51;;;;;;;33.67;10.35;;;;;;;4.76;90.61;102249.03;5094970;28;20016;-76
2022/01/23 09:17:16;;;;;;;31.85;11.35;;;;;;;4.69;91.80;102257.66;5095094;28;20107;-76
2022/01/23 09:19:45;;;;;;;28.63;9.90;;;;;;;4.78;91.21;102256.94;5095050;28;20032;-76
2022/01/23 09:22:11;;;;;;;27.48;10.68;;;;;;;4.95;91.00;102258.25;5094931;28;20429;-76
2022/01/23 09:24:36;;;;;;;30.58;10.32;;;;;;;5.08;89.85;102251.78;5094885;28;20060;-76
2022/01/23 09:27:04;;;;;;;33.23;11.40;;;;;;;5.02;90.33;102262.09;5094845;28;20032;-76
2022/01/23 09:29:35;;;;;;;36.47;10.77;;;;;;;5.03;89.97;102253.97;5093741;28;20042;-76
2022/01/23 09:32:01;;;;;;;27.25;11.35;;;;;;;5.14;90.79;102253.97;5093557;28;20081;-76
2022/01/23 09:34:32;;;;;;;29.33;11.27;;;;;;;5.21;88.94;102259.63;5094869;28;20093;-76
2022/01/23 09:36:59;;;;;;;35.58;11.68;;;;;;;5.36;89.54;102254.88;5094502;28;20493;-76
2022/01/23 09:39:25;;;;;;;32.92;12.00;;;;;;;5.09;89.40;102250.81;5093488;28;20078;-76
2022/01/23 09:41:58;;;;;;;34.65;12.32;;;;;;;5.07;89.39;102260.78;5093432;28;20425;-76
2022/01/23 09:44:24;;;;;;;31.02;11.88;;;;;;;5.19;89.87;102257.13;5093480;28;20036;-76
2022/01/23 09:46:49;;;;;;;27.52;10.65;;;;;;;5.33;88.87;102257.81;5094234;28;20114;-76
2022/01/23 09:49:18;;;;;;;30.52;10.80;;;;;;;5.13;88.25;102260.28;5094654;28;20541;-76
2022/01/23 09:51:45;;;;;;;27.80;11.13;;;;;;;5.00;89.25;102264.94;5095014;28;20032;-76
2022/01/23 09:54:13;;;;;;;26.25;10.65;;;;;;;4.95;89.56;102266.25;5094538;28;20036;-76
2022/01/23 09:56:40;;;;;;;34.05;11.20;;;;;;;4.96;89.22;102263.47;5094612;28;20035;-76
2022/01/23 09:59:12;;;;;;;28.65;10.23;;;;;;;5.06;89.82;102266.22;5095342;28;20048;-77
2022/01/23 10:01:40;;;;;;;28.67;9.43;;;;;;;5.11;89.45;102264.91;5094670;28;20051;-76
2022/01/23 10:04:05;;;;;;;38.03;12.25;;;;;;;5.21;89.51;102264.97;5094386;28;20035;-76
2022/01/23 10:06:31;;;;;;;29.10;11.15;;;;;;;5.47;89.09;102270.88;5094523;28;20035;-76
2022/01/23 10:08:56;;;;;;;42.58;12.93;;;;;;;5.17;89.31;102267.09;5093406;28;20028;-76
2022/01/23 10:11:21;;;;;;;35.47;12.57;;;;;;;5.30;88.48;102266.06;5094468;28;20042;-76
2022/01/23 10:13:50;;;;;;;37.78;12.15;;;;;;;5.29;88.11;102261.69;5094472;28;20039;-76
2022/01/23 10:16:16;;;;;;;31.73;11.20;;;;;;;5.03;89.01;102275.34;5092025;28;20024;-76
2022/01/23 10:18:42;;;;;;;34.47;11.90;;;;;;;4.95;89.55;102272.47;5094173;28;20036;-76
2022/01/23 10:21:09;;;;;;;38.80;12.13;;;;;;;5.02;89.71;102273.63;5094587;28;20035;-78
2022/01/23 10:23:35;;;;;;;39.13;12.00;;;;;;;4.99;88.46;102279.25;5094341;28;20032;-76
2022/01/23 10:26:02;;;;;;;;;;;;;;;5.09;88.77;102274.84;5094719;28;20050;-76
2022/01/23 10:28:30;;;;;;;;;;;;;;;5.06;90.12;102275.09;5094702;28;19915;-77
2022/01/23 10:30:57;;;;;;;;;;;;;;;5.01;88.84;102281.81;5093878;28;20592;-77
2022/01/23 10:33:22;;;;;;;27.98;9.25;;;;;;;4.99;89.16;102284.59;5095512;28;19941;-77
2022/01/23 10:36:18;;;;;;;34.50;9.93;;;;;;;5.11;89.02;102291.63;5094638;28;20027;-76
2022/01/23 10:39:00;;;;;;;32.05;11.90;;;;;;;5.13;88.00;102289.69;5077990;28;20482;-76
2022/01/23 10:49:53;;;;;;;29.80;10.20;;;;;;;5.22;87.53;102272.03;5091471;28;20040;-78
2022/01/23 10:52:26;;;;;;;30.98;11.88;;;;;;;5.32;87.92;102272.16;5093521;28;20036;-76
2022/01/23 10:54:51;;;;;;;25.88;10.48;;;;;;;5.08;87.00;102275.84;5093859;28;20053;-76
2022/01/23 10:57:16;;;;;;;26.77;9.43;;;;;;;4.84;88.37;102269.78;5093769;28;20111;-78
2022/01/23 10:59:48;;;;;;;28.00;9.27;;;;;;;4.69;88.41;102268.34;5096164;28;20028;-77
2022/01/23 11:02:21;;;;;;;26.15;9.82;;;;;;;4.82;89.83;102263.75;5094332;28;20043;-77
2022/01/23 11:04:56;;;;;;;31.95;9.70;;;;;;;4.98;88.91;102266.88;5094333;28;20035;-77
2022/01/23 11:07:22;;;;;;;30.13;9.00;;;;;;;5.27;88.85;102261.81;5094445;28;20141;-77
2022/01/23 11:09:55;;;;;;;26.92;9.63;;;;;;;5.30;87.98;102260.72;5093909;28;20032;-77
2022/01/23 11:12:32;;;;;;;29.00;10.35;;;;;;;5.48;88.19;102262.75;5094019;28;20089;-77
2022/01/23 11:17:51;;;;;;;35.70;11.80;;;;;;;5.50;86.72;102257.25;5093884;28;20396;-78
2022/01/23 11:20:39;;;;;;;25.27;9.27;;;;;;;5.46;87.18;102256.66;5093348;28;20378;-76
2022/01/23 11:23:13;;;;;;;34.65;11.35;;;;;;;5.10;86.52;102251.66;5093332;28;20035;-77
2022/01/23 11:26:03;;;;;;;31.85;9.55;;;;;;;4.99;87.65;102246.34;5092900;28;20386;-77
2022/01/23 11:28:39;;;;;;;32.92;10.57;;;;;;;5.05;88.04;102244.00;5096805;28;20034;-77
2022/01/23 11:31:08;;;;;;;26.83;9.93;;;;;;;5.15;87.56;102246.81;5098341;28;20020;-77
2022/01/23 11:33:33;;;;;;;27.48;9.93;;;;;;;5.24;86.43;102232.66;5097683;28;20162;-77
2022/01/23 11:35:59;;;;;;;27.88;8.38;;;;;;;5.29;86.77;102241.16;5096735;28;20114;-77
2022/01/23 11:38:25;;;;;;;28.30;9.63;;;;;;;5.11;86.74;102242.69;5097935;28;20028;-77
2022/01/23 11:54:45;;;;;;;27.35;8.82;;;;;;;5.38;87.68;102232.38;5097118;28;20489;-77
2022/01/23 11:57:34;;;;;;;29.80;9.48;;;;;;;5.43;85.97;102226.66;5097027;28;20077;-77
2022/01/23 12:00:07;;;;;;;29.63;9.60;;;;;;;5.14;87.18;102227.25;5085284;28;20423;-77
2022/01/23 12:02:37;;;;;;;28.58;10.18;;;;;;;5.21;87.55;102227.56;5097440;28;20102;-77
2022/01/23 12:05:21;;;;;;;29.70;9.70;;;;;;;5.31;87.20;102233.88;5097670;28;20032;-77
2022/01/23 12:08:15;;;;;;;26.13;8.70;;;;;;;5.52;86.25;102231.25;5097141;28;20055;-77
2022/01/23 12:11:04;;;;;;;22.90;7.65;;;;;;;5.41;85.50;102229.44;5097993;28;20032;-77
2022/01/23 12:16:27;;;;;;;20.13;7.10;;;;;;;5.65;84.93;102221.22;5097106;28;20028;-77
2022/01/23 12:19:20;;;;;;;22.92;7.95;;;;;;;5.56;84.70;102211.28;5097565;28;20092;-79
2022/01/23 12:21:46;;;;;;;18.55;7.65;;;;;;;5.34;84.80;102206.06;5097158;28;20024;-78
2022/01/23 12:24:15;;;;;;;26.80;8.43;;;;;;;5.33;86.27;102207.88;5096779;28;20028;-76
2022/01/23 12:26:44;;;;;;;21.15;7.75;;;;;;;5.49;86.05;102202.09;5095936;28;20024;-78
2022/01/23 12:29:17;;;;;;;27.50;8.50;;;;;;;5.58;85.60;102214.66;5095474;28;20028;-75
2022/01/23 12:31:43;;;;;;;28.42;8.15;;;;;;;5.47;85.61;102207.56;5094723;28;20371;-75
2022/01/23 12:34:09;;;;;;;22.50;8.05;;;;;;;5.71;85.50;102209.16;5095976;28;20035;-75
2022/01/23 12:36:37;;;;;;;28.98;8.75;;;;;;;5.70;85.14;102200.28;5096096;28;20040;-75
2022/01/23 12:39:09;;;;;;;23.90;8.07;;;;;;;5.71;84.64;102207.34;5094446;28;20116;-76
2022/01/23 12:41:34;;;;;;;25.33;9.02;;;;;;;5.49;84.69;102199.41;5095405;28;20039;-75
2022/01/23 12:44:05;;;;;;;24.10;9.13;;;;;;;5.60;83.89;102199.34;5095687;28;20375;-75
2022/01/23 12:46:37;;;;;;;25.65;7.70;;;;;;;5.50;84.05;102201.13;5096429;28;20334;-76
2022/01/23 12:49:21;;;;;;;23.17;7.25;;;;;;;5.46;84.01;102191.66;5096123;28;20040;-76
2022/01/23 12:51:49;;;;;;;28.73;8.52;;;;;;;5.37;84.26;102203.13;5095803;28;20024;-76
2022/01/23 12:54:21;;;;;;;23.15;7.43;;;;;;;5.36;83.94;102199.59;5094314;28;20470;-76
2022/01/23 12:56:48;;;;;;;23.20;8.43;;;;;;;5.42;84.58;102200.91;5095273;28;20117;-76
2022/01/23 12:59:25;;;;;;;23.45;6.43;;;;;;;5.41;84.39;102196.53;5095225;28;20391;-76
2022/01/23 13:01:57;;;;;;;19.67;6.93;;;;;;;5.54;83.38;102197.22;5094670;28;20047;-76
2022/01/23 13:04:23;;;;;;;24.92;8.15;;;;;;;5.45;84.62;102198.81;5095553;28;20086;-76
2022/01/23 13:06:57;;;;;;;23.48;9.07;;;;;;;5.41;82.92;102194.69;5094223;28;20063;-75
2022/01/23 13:12:04;;;;;;;25.70;8.52;;;;;;;5.48;83.79;102192.38;5095485;28;20033;-76
2022/01/23 13:14:43;;;;;;;26.67;9.68;;;;;;;5.56;83.69;102185.38;5095472;28;20036;-76
2022/01/23 13:17:35;;;;;;;27.65;8.75;;;;;;;5.43;84.83;102184.72;5095893;28;20024;-76
2022/01/23 13:30:54;;;;;;;28.67;9.55;;;;;;;5.53;84.83;102187.50;5095227;28;20032;-76
2022/01/23 13:33:21;;;;;;;24.17;8.45;;;;;;;5.50;84.34;102182.41;5093800;28;20036;-76
2022/01/23 13:35:52;;;;;;;21.73;8.88;;;;;;;5.50;84.99;102191.28;5095020;28;20033;-76
2022/01/23 13:38:20;;;;;;;20.85;9.15;;;;;;;5.50;85.31;102180.56;5095084;28;20039;-76
2022/01/23 13:40:46;;;;;;;29.27;10.75;;;;;;;5.43;84.69;102192.75;5094828;28;20027;-75
2022/01/23 13:59:21;;;;;;;23.60;8.38;;;;;;;5.46;83.43;102187.16;5072670;28;20507;-75
2022/01/23 14:01:52;;;;;;;23.33;8.25;;;;;;;5.43;83.73;102186.56;5093174;28;20031;-75
2022/01/23 14:04:21;;;;;;;22.42;7.68;;;;;;;5.39;83.08;102187.78;5094348;28;20028;-75
2022/01/23 14:06:47;;;;;;;27.65;8.13;;;;;;;5.40;83.15;102184.13;5094043;28;20035;-75
2022/01/23 14:09:14;;;;;;;20.55;7.63;;;;;;;5.38;83.86;102180.75;5093959;28;20124;-75
2022/01/23 14:11:41;;;;;;;19.20;7.47;;;;;;;5.41;83.61;102184.00;5094218;28;20028;-76
2022/01/23 14:14:16;;;;;;;31.05;10.10;;;;;;;5.43;84.67;102176.72;5093889;28;20027;-75
2022/01/23 14:16:43;;;;;;;24.02;8.57;;;;;;;5.35;83.24;102176.53;5094111;28;20039;-75
2022/01/23 14:19:26;;;;;;;22.05;7.88;;;;;;;5.38;83.54;102181.59;5093849;28;20042;-76
2022/01/23 14:21:59;;;;;;;27.00;8.32;;;;;;;5.41;84.10;102180.47;5093780;28;20028;-75
2022/01/23 14:24:24;;;;;;;25.70;8.98;;;;;;;5.53;83.54;102180.31;5093631;28;20064;-75
2022/01/23 14:27:06;;;;;;;21.97;7.30;;;;;;;5.42;82.11;102171.50;5094036;28;20070;-75
2022/01/23 14:29:34;;;;;;;24.10;8.25;;;;;;;5.37;82.65;102169.22;5093768;28;20246;-75
2022/01/23 14:32:06;;;;;;;22.98;7.57;;;;;;;5.41;83.85;102172.47;5093612;28;20032;-75
2022/01/23 14:34:31;;;;;;;29.10;8.85;;;;;;;5.48;83.79;102169.16;5093615;28;20394;-75
2022/01/23 14:36:59;;;;;;;24.58;8.07;;;;;;;5.51;85.08;102170.72;5094789;28;20020;-77
2022/01/23 14:39:24;;;;;;;26.00;8.18;;;;;;;5.62;84.01;102170.66;5095540;28;20150;-75
2022/01/23 14:41:50;;;;;;;21.45;7.75;;;;;;;5.50;82.00;102172.56;5092264;28;20128;-75
2022/01/23 14:44:18;;;;;;;21.27;6.93;;;;;;;5.50;82.32;102171.72;5093275;28;20039;-75
2022/01/23 14:46:48;;;;;;;20.35;8.23;;;;;;;5.67;80.75;102172.94;5092354;28;20035;-75
2022/01/23 14:49:23;;;;;;;19.77;6.88;;;;;;;5.56;81.08;102168.50;5093530;28;20105;-75
2022/01/23 14:51:49;;;;;;;19.83;6.50;;;;;;;5.52;81.80;102173.28;5093557;28;20028;-75
2022/01/23 14:54:17;;;;;;;21.98;7.38;;;;;;;5.45;82.59;102168.56;5092589;28;20390;-76
2022/01/23 14:56:43;;;;;;;24.40;8.18;;;;;;;5.39;82.34;102171.75;5094156;28;20028;-76
2022/01/23 14:59:10;;;;;;;22.42;7.95;;;;;;;5.38;82.66;102176.25;5093124;28;20048;-75